(844) FLY-METRO info@metroplex.com

OUR AIRCRAFT

Lorem ipsum dolor sit amet, consectetur adipiscing elit. Sed vel erat tempus, suscipit orci ut, tincidunt augue. Donec nibh quam, tristique sed lacinia quis, vulputate et purus. Vivamus sollicitudin pharetra felis eu ultricies. Mauris ac est faucibus, condimentum dui eget, porta libero. Phasellus arcu quam, ultrices eget neque quis, tincidunt egestas augue.

CITATION 1

CITATION II

It at first you don't succeed, well, so much for skydiving.
Aviation Weather
FORT WORTH, TX
Metar
KFTW 221853Z 17014G17KT 10SM CLR 13/03 A3029 RMK AO2 SLP258 T01330033 $

18:53 UTC

Wind: 170° 14kt

Visibility: 10 SM

Sky:

Temp: 13 deg C / 55.4 deg F

Dewpoint: 3 deg C / 37.4 deg F

Pressure: 30.29 inHg

TAF
KFTW 221720Z 2218/2318 18012KT P6SM SCT060 BKN200 FM230900 17012KT P6SM SCT020 OVC100 FM231100 17011KT P6SM OVC012 FM231600 18014KT 6SM -RA BR OVC009
Pirep (1)
DFW UA /OV DFW225030/TM 1815/FL150/TP E135/TB MOD/RM DURD 150-135